createdAt,value
2018-12-17T00:29:15.115Z,66.47
2018-12-17T00:29:15.690Z,66.47
2018-12-17T00:29:16.290Z,66.47
2018-12-17T00:29:16.889Z,66.67
2018-12-17T00:29:17.489Z,66.67
2018-12-17T00:29:18.090Z,66.47
2018-12-17T00:29:18.689Z,66.67
2018-12-17T00:29:19.291Z,66.57
2018-12-17T00:30:13.768Z,66.47
2018-12-17T00:30:14.367Z,66.57
2018-12-17T00:30:14.966Z,66.47
2018-12-17T00:30:15.567Z,66.57
2018-12-17T00:30:16.166Z,66.57
2018-12-17T00:30:16.767Z,66.47
2018-12-17T00:30:17.367Z,66.67
2018-12-17T00:30:17.964Z,66.47
2018-12-17T00:31:11.422Z,66.09
2018-12-17T00:31:12.021Z,66.09
2018-12-17T00:31:12.619Z,66.09
2018-12-17T00:31:13.219Z,66.09
2018-12-17T00:31:13.818Z,66.00
2018-12-17T00:31:14.418Z,66.09
2018-12-17T00:31:15.019Z,65.91
2018-12-17T00:31:15.617Z,66.00
2018-12-17T00:32:09.075Z,66.09
2018-12-17T00:32:09.673Z,66.09
2018-12-17T00:32:10.271Z,66.09
2018-12-17T00:32:10.870Z,66.19
2018-12-17T00:32:11.470Z,65.91
2018-12-17T00:32:12.074Z,66.09
2018-12-17T00:32:12.671Z,66.09
2018-12-17T00:32:13.270Z,66.09
2018-12-17T00:33:06.727Z,66.19
2018-12-17T00:33:07.326Z,65.91
2018-12-17T00:33:07.924Z,66.28
2018-12-17T00:33:08.524Z,66.00
2018-12-17T00:33:09.128Z,66.00
2018-12-17T00:33:09.723Z,66.19
2018-12-17T00:33:10.323Z,66.28
2018-12-17T00:33:10.924Z,65.81
2018-12-17T00:34:04.411Z,66.19
2018-12-17T00:34:04.975Z,65.53
2018-12-17T00:34:05.576Z,65.91
2018-12-17T00:34:06.177Z,66.19
2018-12-17T00:34:06.775Z,66.09
2018-12-17T00:34:07.374Z,66.09
2018-12-17T00:34:07.974Z,65.72
2018-12-17T00:34:08.576Z,65.81
2018-12-17T00:35:02.030Z,65.53
2018-12-17T00:35:02.627Z,65.63
2018-12-17T00:35:03.229Z,65.72
2018-12-17T00:35:03.830Z,65.44
2018-12-17T00:35:04.427Z,65.34
2018-12-17T00:35:05.026Z,65.34
2018-12-17T00:35:05.626Z,65.53
2018-12-17T00:35:06.226Z,65.34
2018-12-17T00:35:59.683Z,65.72
2018-12-17T00:36:00.280Z,65.81
2018-12-17T00:36:00.880Z,65.81
2018-12-17T00:36:01.484Z,65.06
2018-12-17T00:36:02.111Z,65.34
2018-12-17T00:36:02.679Z,65.81
2018-12-17T00:36:03.279Z,65.91
2018-12-17T00:36:03.878Z,65.91
2018-12-17T00:36:57.335Z,65.63
2018-12-17T00:36:57.933Z,65.63
2018-12-17T00:36:58.531Z,65.44
2018-12-17T00:36:59.131Z,65.44
2018-12-17T00:36:59.732Z,65.34
2018-12-17T00:37:00.333Z,65.34
2018-12-17T00:37:00.931Z,65.63
2018-12-17T00:37:01.532Z,65.34
2018-12-17T00:38:06.662Z,65.25
2018-12-17T00:38:07.258Z,65.25
2018-12-17T00:38:07.857Z,65.25
2018-12-17T00:38:08.457Z,65.25
2018-12-17T00:38:09.057Z,65.25
2018-12-17T00:38:09.657Z,65.25
2018-12-17T00:38:10.256Z,65.25
2018-12-17T00:38:10.856Z,65.25
2018-12-17T00:39:04.312Z,65.25
2018-12-17T00:39:04.910Z,65.34
2018-12-17T00:39:05.509Z,65.15
2018-12-17T00:39:06.109Z,65.34
2018-12-17T00:39:06.709Z,65.25
2018-12-17T00:39:07.308Z,65.06
2018-12-17T00:39:07.911Z,65.15
2018-12-17T00:39:08.509Z,65.34
2018-12-17T00:40:03.011Z,64.96
2018-12-17T00:40:03.584Z,64.96
2018-12-17T00:40:04.185Z,64.96
2018-12-17T00:40:04.784Z,65.25
2018-12-17T00:40:05.391Z,64.96
2018-12-17T00:40:05.984Z,64.96
2018-12-17T00:40:06.584Z,64.96
2018-12-17T00:40:07.183Z,64.96
2018-12-17T00:41:01.669Z,64.96
2018-12-17T00:41:02.260Z,64.87
2018-12-17T00:41:02.860Z,65.06
2018-12-17T00:41:03.461Z,64.96
2018-12-17T00:41:04.059Z,65.06
2018-12-17T00:41:04.659Z,64.77
2018-12-17T00:41:05.261Z,64.77
2018-12-17T00:41:05.859Z,64.87
2018-12-17T00:42:00.339Z,64.96
2018-12-17T00:42:00.937Z,64.96
2018-12-17T00:42:01.537Z,64.96
2018-12-17T00:42:02.135Z,65.25
2018-12-17T00:42:02.736Z,64.96
2018-12-17T00:42:03.335Z,64.96
2018-12-17T00:42:03.935Z,65.06
2018-12-17T00:42:04.535Z,65.06
2018-12-17T00:42:59.016Z,64.87
2018-12-17T00:42:59.612Z,64.96
2018-12-17T00:43:00.211Z,64.96
2018-12-17T00:43:00.815Z,64.87
2018-12-17T00:43:01.412Z,64.96
2018-12-17T00:43:02.012Z,64.96
2018-12-17T00:43:02.611Z,65.06
2018-12-17T00:43:03.211Z,65.06
2018-12-17T00:43:57.693Z,64.96
2018-12-17T00:43:58.288Z,65.15
2018-12-17T00:43:58.888Z,65.34
2018-12-17T00:43:59.488Z,65.15
2018-12-17T00:44:00.090Z,65.25
2018-12-17T00:44:00.687Z,65.34
2018-12-17T00:44:01.358Z,65.25
2018-12-17T00:44:01.885Z,65.25
2018-12-17T00:44:56.389Z,64.96
2018-12-17T00:44:56.964Z,65.25
2018-12-17T00:44:57.563Z,65.25
2018-12-17T00:44:58.163Z,65.34
2018-12-17T00:44:58.764Z,65.25
2018-12-17T00:44:59.366Z,65.25
2018-12-17T00:44:59.963Z,65.25
2018-12-17T00:45:00.566Z,65.15
2018-12-17T00:45:55.042Z,65.34
2018-12-17T00:45:55.639Z,65.25
2018-12-17T00:45:56.239Z,65.44
2018-12-17T00:45:56.838Z,65.44
2018-12-17T00:45:57.438Z,65.44
2018-12-17T00:45:58.040Z,65.15
2018-12-17T00:45:58.638Z,64.87
2018-12-17T00:45:59.239Z,65.25
2018-12-17T00:46:53.718Z,64.96
2018-12-17T00:46:54.315Z,64.96
2018-12-17T00:46:54.915Z,64.87
2018-12-17T00:46:55.516Z,65.06
2018-12-17T00:46:56.118Z,64.87
2018-12-17T00:46:56.715Z,65.34
2018-12-17T00:46:57.315Z,64.87
2018-12-17T00:46:57.914Z,64.96
2018-12-17T00:47:52.393Z,65.15
2018-12-17T00:47:52.991Z,65.25
2018-12-17T00:47:53.591Z,65.25
2018-12-17T00:47:54.190Z,65.25
2018-12-17T00:47:54.790Z,65.25
2018-12-17T00:47:55.390Z,65.15
2018-12-17T00:47:55.997Z,65.25
2018-12-17T00:47:56.591Z,65.15
2018-12-17T00:48:51.069Z,65.25
2018-12-17T00:48:51.667Z,65.25
2018-12-17T00:48:52.266Z,65.25
2018-12-17T00:48:52.866Z,64.96
2018-12-17T00:48:53.466Z,65.25
2018-12-17T00:48:54.066Z,65.25
2018-12-17T00:48:54.664Z,65.25
2018-12-17T00:48:55.265Z,65.25
2018-12-17T00:49:49.778Z,64.87
2018-12-17T00:49:50.347Z,65.34
2018-12-17T00:49:50.942Z,64.87
2018-12-17T00:49:51.542Z,65.34
2018-12-17T00:49:52.143Z,65.15
2018-12-17T00:49:52.742Z,65.25
2018-12-17T00:49:53.345Z,65.15
2018-12-17T00:49:53.941Z,65.15
2018-12-17T00:50:48.421Z,65.81
2018-12-17T00:50:49.018Z,65.72
2018-12-17T00:50:49.618Z,65.91
2018-12-17T00:50:50.217Z,65.91
2018-12-17T00:50:50.821Z,65.44
2018-12-17T00:50:51.418Z,65.81
2018-12-17T00:50:52.017Z,66.00
2018-12-17T00:50:52.620Z,65.63
2018-12-17T00:51:47.097Z,65.34
2018-12-17T00:51:47.694Z,65.34
2018-12-17T00:51:48.294Z,65.53
2018-12-17T00:51:48.894Z,65.53
2018-12-17T00:51:49.495Z,65.53
2018-12-17T00:51:50.094Z,65.53
2018-12-17T00:51:50.694Z,65.56
2018-12-17T00:51:51.294Z,65.53
2018-12-17T00:52:45.773Z,66.09
2018-12-17T00:52:46.369Z,66.03
2018-12-17T00:52:46.970Z,66.13
2018-12-17T00:52:47.570Z,66.22
2018-12-17T00:52:48.170Z,66.09
2018-12-17T00:52:48.769Z,66.13
2018-12-17T00:52:49.370Z,66.19
2018-12-17T00:52:49.969Z,66.09
2018-12-17T00:53:44.449Z,65.91
2018-12-17T00:53:45.045Z,66.09
2018-12-17T00:53:45.653Z,66.32
2018-12-17T00:53:46.244Z,66.22
2018-12-17T00:53:46.845Z,66.03
2018-12-17T00:53:47.444Z,66.09
2018-12-17T00:53:48.044Z,66.03
2018-12-17T00:53:48.643Z,66.13
2018-12-17T00:54:43.124Z,66.51
2018-12-17T00:54:43.722Z,66.60
2018-12-17T00:54:44.322Z,66.60
2018-12-17T00:54:44.920Z,66.70
2018-12-17T00:54:45.522Z,66.80
2018-12-17T00:54:46.120Z,66.60
2018-12-17T00:54:46.722Z,66.51
2018-12-17T00:54:47.322Z,66.51
2018-12-17T00:55:41.821Z,66.80
2018-12-17T00:55:42.397Z,67.36
2018-12-17T00:55:42.999Z,66.80
2018-12-17T00:55:43.596Z,66.80
2018-12-17T00:55:44.197Z,67.08
2018-12-17T00:55:44.796Z,67.08
2018-12-17T00:55:45.395Z,66.80
2018-12-17T00:55:45.995Z,67.08
2018-12-17T00:56:39.453Z,67.18
2018-12-17T00:56:40.053Z,67.27
2018-12-17T00:56:40.651Z,67.27
2018-12-17T00:56:41.248Z,67.08
2018-12-17T00:56:41.849Z,67.18
2018-12-17T00:56:42.448Z,67.27
2018-12-17T00:56:43.048Z,67.18
2018-12-17T00:56:43.650Z,67.18
2018-12-17T00:57:37.103Z,67.83
2018-12-17T00:57:37.701Z,67.83
2018-12-17T00:57:38.301Z,67.83
2018-12-17T00:57:38.900Z,67.93
2018-12-17T00:57:39.501Z,67.83
2018-12-17T00:57:40.100Z,67.93
2018-12-17T00:57:40.700Z,68.12
2018-12-17T00:57:41.301Z,67.55
2018-12-17T00:58:34.757Z,68.79
2018-12-17T00:58:35.353Z,68.98
2018-12-17T00:58:35.953Z,69.07
2018-12-17T00:58:36.553Z,68.79
2018-12-17T00:58:37.152Z,68.79
2018-12-17T00:58:37.752Z,68.88
2018-12-17T00:58:38.352Z,68.88
2018-12-17T00:58:38.953Z,68.88
2018-12-17T00:59:32.406Z,69.45
2018-12-17T00:59:33.004Z,70.01
2018-12-17T00:59:33.605Z,69.64
2018-12-17T00:59:34.204Z,69.73
2018-12-17T00:59:34.806Z,69.64
2018-12-17T00:59:35.404Z,69.64
2018-12-17T00:59:36.004Z,69.73
2018-12-17T00:59:36.606Z,69.54
2018-12-17T01:00:31.106Z,70.01
2018-12-17T01:00:31.681Z,70.39
2018-12-17T01:00:32.280Z,70.01
2018-12-17T01:00:32.880Z,70.20
2018-12-17T01:00:33.480Z,70.30
2018-12-17T01:00:34.080Z,70.01
2018-12-17T01:00:34.679Z,70.01
2018-12-17T01:00:35.281Z,70.11
2018-12-17T01:01:29.757Z,71.62
2018-12-17T01:01:30.355Z,71.72
2018-12-17T01:01:30.955Z,71.72
2018-12-17T01:01:31.555Z,71.62
2018-12-17T01:01:32.156Z,71.91
2018-12-17T01:01:32.755Z,71.72
2018-12-17T01:01:33.355Z,71.72
2018-12-17T01:01:33.956Z,71.72
2018-12-17T01:02:28.434Z,72.57
2018-12-17T01:02:29.032Z,72.57
2018-12-17T01:02:29.630Z,72.57
2018-12-17T01:02:30.231Z,72.57
2018-12-17T01:02:30.831Z,73.14
2018-12-17T01:02:31.430Z,72.86
2018-12-17T01:02:32.030Z,72.86
2018-12-17T01:02:32.632Z,72.86
2018-12-17T01:03:39.090Z,74.28
2018-12-17T01:03:39.688Z,74.37
2018-12-17T01:03:40.287Z,74.37
2018-12-17T01:03:40.888Z,73.99
2018-12-17T01:03:41.487Z,74.28
2018-12-17T01:04:35.513Z,74.66
2018-12-17T01:04:36.110Z,74.75
2018-12-17T01:04:36.711Z,75.13
2018-12-17T01:04:37.311Z,74.95
2018-12-17T01:04:37.910Z,74.95
2018-12-17T01:04:38.510Z,74.95
2018-12-17T01:04:39.110Z,74.95
2018-12-17T01:05:32.575Z,75.98
2018-12-17T01:05:33.152Z,76.17
2018-12-17T01:05:33.749Z,76.17
2018-12-17T01:05:34.349Z,75.98
2018-12-17T01:05:34.947Z,76.08
2018-12-17T01:05:35.547Z,76.17
2018-12-17T01:05:36.149Z,76.17
2018-12-17T01:05:36.750Z,76.27
2018-12-17T01:07:08.297Z,78.16
2018-12-17T01:07:08.892Z,78.26
2018-12-17T01:07:09.492Z,78.26
2018-12-17T01:07:10.096Z,77.59
2018-12-17T01:07:10.692Z,78.26
2018-12-17T01:07:11.293Z,77.59
2018-12-17T01:07:11.892Z,77.59
2018-12-17T01:07:12.495Z,77.59
2018-12-17T01:07:13.090Z,78.35
2018-12-17T01:07:13.689Z,78.07
2018-12-17T01:07:14.290Z,78.26
2018-12-17T01:08:58.173Z,79.02
2018-12-17T01:08:58.770Z,78.83
2018-12-17T01:08:59.371Z,79.02
2018-12-17T01:08:59.969Z,79.02
2018-12-17T01:09:00.569Z,79.11
2018-12-17T01:09:01.174Z,79.02
2018-12-17T01:10:15.722Z,79.77
2018-12-17T01:10:16.287Z,79.77
2018-12-17T01:10:16.887Z,79.77
2018-12-17T01:10:17.486Z,79.49
2018-12-17T01:10:18.088Z,79.68
2018-12-17T01:10:18.686Z,79.58
2018-12-17T01:10:19.286Z,79.39
2018-12-17T01:10:19.887Z,79.49
2018-12-17T01:11:13.343Z,80.34
2018-12-17T01:11:13.939Z,80.34
2018-12-17T01:11:14.539Z,80.63
2018-12-17T01:11:15.138Z,80.34
2018-12-17T01:11:15.738Z,80.15
2018-12-17T01:11:16.338Z,80.44
2018-12-17T01:11:16.940Z,80.25
2018-12-17T01:11:17.539Z,80.15
2018-12-17T01:12:10.994Z,81.10
2018-12-17T01:12:11.590Z,80.91
2018-12-17T01:12:12.190Z,81.01
2018-12-17T01:12:12.790Z,80.82
2018-12-17T01:12:13.390Z,80.91
2018-12-17T01:12:13.992Z,80.72
2018-12-17T01:12:14.589Z,80.91
2018-12-17T01:12:15.190Z,81.01
2018-12-17T01:13:08.646Z,81.86
2018-12-17T01:13:09.242Z,81.76
2018-12-17T01:13:09.844Z,81.86
2018-12-17T01:13:10.444Z,81.86
2018-12-17T01:13:11.042Z,81.76
2018-12-17T01:13:11.645Z,81.95
2018-12-17T01:13:12.243Z,81.67
2018-12-17T01:13:12.841Z,82.05
2018-12-17T01:14:07.322Z,81.86
2018-12-17T01:14:07.918Z,81.95
2018-12-17T01:14:08.516Z,82.33
2018-12-17T01:14:09.119Z,82.14
2018-12-17T01:14:09.717Z,82.05
2018-12-17T01:14:10.316Z,82.33
2018-12-17T01:14:10.916Z,81.86
2018-12-17T01:14:11.519Z,82.14
2018-12-17T01:15:04.973Z,82.62
2018-12-17T01:15:05.571Z,82.52
2018-12-17T01:15:06.170Z,82.52
2018-12-17T01:15:06.770Z,82.71
2018-12-17T01:15:07.373Z,82.71
2018-12-17T01:15:07.974Z,82.52
2018-12-17T01:15:08.569Z,82.71
2018-12-17T01:15:09.178Z,82.62
2018-12-17T01:16:02.645Z,82.90
2018-12-17T01:16:03.221Z,83.00
2018-12-17T01:16:03.821Z,83.00
2018-12-17T01:16:04.421Z,83.00
2018-12-17T01:16:05.021Z,83.09
2018-12-17T01:16:05.624Z,82.81
2018-12-17T01:16:06.220Z,83.00
2018-12-17T01:16:06.822Z,82.81
2018-12-17T01:17:01.299Z,83.18
2018-12-17T01:17:01.896Z,83.66
2018-12-17T01:17:02.497Z,83.56
2018-12-17T01:17:03.096Z,83.66
2018-12-17T01:17:03.695Z,83.66
2018-12-17T01:17:04.296Z,83.75
2018-12-17T01:17:04.896Z,83.85
2018-12-17T01:17:05.495Z,83.85
2018-12-17T01:17:58.951Z,83.94
2018-12-17T01:17:59.550Z,83.94
2018-12-17T01:18:00.148Z,84.23
2018-12-17T01:18:00.747Z,83.94
2018-12-17T01:18:01.347Z,83.94
2018-12-17T01:18:01.949Z,83.94
2018-12-17T01:18:02.548Z,84.13
2018-12-17T01:18:03.150Z,84.04
2018-12-17T01:18:57.626Z,85.27
2018-12-17T01:18:58.223Z,85.36
2018-12-17T01:18:58.823Z,85.08
2018-12-17T01:18:59.424Z,85.36
2018-12-17T01:19:00.024Z,85.08
2018-12-17T01:19:00.623Z,85.36
2018-12-17T01:19:01.224Z,85.17
2018-12-17T01:19:01.874Z,85.27
2018-12-17T01:19:55.280Z,85.55
2018-12-17T01:19:55.877Z,85.55
2018-12-17T01:19:56.477Z,85.55
2018-12-17T01:19:57.076Z,85.27
2018-12-17T01:19:57.676Z,85.46
2018-12-17T01:19:58.279Z,85.27
2018-12-17T01:19:58.875Z,85.27
2018-12-17T01:19:59.475Z,85.27
2018-12-17T01:20:52.959Z,85.84
2018-12-17T01:20:53.528Z,85.36
2018-12-17T01:20:54.127Z,85.46
2018-12-17T01:20:54.727Z,85.65
2018-12-17T01:20:55.327Z,85.65
2018-12-17T01:20:55.927Z,85.74
2018-12-17T01:20:56.527Z,85.65
2018-12-17T01:20:57.131Z,85.46
2018-12-17T01:21:51.605Z,85.65
2018-12-17T01:21:52.202Z,85.65
2018-12-17T01:21:52.802Z,85.55
2018-12-17T01:21:53.402Z,85.55
2018-12-17T01:21:54.001Z,85.65
2018-12-17T01:21:54.602Z,85.65
2018-12-17T01:21:55.201Z,85.74
2018-12-17T01:21:55.801Z,85.55
2018-12-17T01:22:49.258Z,85.74
2018-12-17T01:22:49.856Z,85.74
2018-12-17T01:22:50.456Z,85.74
2018-12-17T01:22:51.054Z,85.55
2018-12-17T01:22:51.656Z,85.65
2018-12-17T01:22:52.256Z,86.31
2018-12-17T01:22:52.854Z,86.12
2018-12-17T01:22:53.454Z,86.12
2018-12-17T01:23:46.911Z,86.60
2018-12-17T01:23:47.562Z,86.50
2018-12-17T01:23:48.109Z,86.50
2018-12-17T01:23:48.706Z,86.50
2018-12-17T01:23:49.307Z,86.50
2018-12-17T01:23:49.909Z,86.60
2018-12-17T01:23:50.506Z,86.60
2018-12-17T01:23:51.106Z,86.60
2018-12-17T01:24:45.584Z,87.16
2018-12-17T01:24:46.182Z,87.26
2018-12-17T01:24:46.782Z,87.16
2018-12-17T01:24:47.384Z,87.16
2018-12-17T01:24:47.981Z,87.26
2018-12-17T01:24:48.581Z,87.16
2018-12-17T01:24:49.181Z,87.16
2018-12-17T01:24:49.785Z,87.35
2018-12-17T01:25:43.237Z,87.35
2018-12-17T01:25:43.835Z,87.45
2018-12-17T01:25:44.435Z,87.45
2018-12-17T01:25:45.038Z,87.26
2018-12-17T01:25:45.634Z,87.35
2018-12-17T01:25:46.234Z,87.45
2018-12-17T01:25:46.834Z,87.45
2018-12-17T01:25:47.434Z,87.35
2018-12-17T01:26:41.935Z,87.64
2018-12-17T01:26:42.511Z,87.64
2018-12-17T01:26:43.110Z,87.64
2018-12-17T01:26:43.708Z,87.64
2018-12-17T01:26:44.308Z,87.83
2018-12-17T01:26:44.908Z,87.64
2018-12-17T01:26:45.508Z,87.92
2018-12-17T01:26:46.110Z,87.73
2018-12-17T01:27:39.565Z,87.92
2018-12-17T01:27:40.162Z,88.11
2018-12-17T01:27:40.762Z,87.92
2018-12-17T01:27:41.362Z,87.83
2018-12-17T01:27:41.961Z,87.83
2018-12-17T01:27:42.632Z,87.92
2018-12-17T01:27:43.164Z,87.83
2018-12-17T01:27:43.763Z,87.83
2018-12-17T01:28:38.241Z,88.96
2018-12-17T01:28:38.837Z,88.96
2018-12-17T01:28:39.436Z,88.78
2018-12-17T01:28:40.043Z,88.96
2018-12-17T01:28:40.634Z,88.78
2018-12-17T01:28:41.236Z,88.78
2018-12-17T01:28:41.834Z,88.96
2018-12-17T01:28:42.435Z,88.96
2018-12-17T01:29:36.914Z,89.53
2018-12-17T01:29:37.512Z,89.53
2018-12-17T01:29:38.113Z,89.72
2018-12-17T01:29:38.712Z,89.34
2018-12-17T01:29:39.312Z,89.58
2018-12-17T01:29:39.916Z,89.72
2018-12-17T01:29:40.512Z,89.72
2018-12-17T01:29:41.112Z,89.25
2018-12-17T01:30:35.590Z,90.20
2018-12-17T01:30:36.193Z,90.39
2018-12-17T01:30:36.788Z,89.91
2018-12-17T01:30:37.387Z,89.72
2018-12-17T01:30:37.990Z,89.72
2018-12-17T01:30:38.587Z,89.91
2018-12-17T01:30:39.187Z,89.82
2018-12-17T01:30:39.788Z,89.91
2018-12-17T01:31:33.266Z,89.91
2018-12-17T01:31:33.840Z,89.91
2018-12-17T01:31:34.440Z,89.91
2018-12-17T01:31:35.040Z,90.01
2018-12-17T01:31:35.640Z,89.91
2018-12-17T01:31:36.238Z,89.91
2018-12-17T01:31:36.839Z,89.91
2018-12-17T01:31:37.440Z,89.82
2018-12-17T01:32:31.948Z,89.72
2018-12-17T01:32:32.519Z,89.72
2018-12-17T01:32:33.119Z,89.82
2018-12-17T01:32:33.720Z,89.82
2018-12-17T01:32:34.319Z,89.72
2018-12-17T01:32:34.920Z,89.72
2018-12-17T01:32:35.518Z,89.86
2018-12-17T01:32:36.118Z,90.01
2018-12-17T01:33:30.597Z,90.01
2018-12-17T01:33:31.198Z,90.10
2018-12-17T01:33:31.795Z,90.10
2018-12-17T01:33:32.396Z,89.91
2018-12-17T01:33:32.996Z,90.15
2018-12-17T01:33:33.595Z,90.01
2018-12-17T01:33:34.195Z,90.01
2018-12-17T01:33:34.795Z,90.43
2018-12-17T01:34:28.251Z,91.24
2018-12-17T01:34:28.848Z,91.14
2018-12-17T01:34:29.450Z,91.09
2018-12-17T01:34:30.048Z,91.24
2018-12-17T01:34:30.649Z,91.24
2018-12-17T01:34:31.250Z,91.24
2018-12-17T01:34:31.848Z,91.24
2018-12-17T01:34:32.446Z,91.28
2018-12-17T01:35:26.927Z,91.57
2018-12-17T01:35:27.524Z,91.57
2018-12-17T01:35:28.123Z,91.62
2018-12-17T01:35:28.725Z,91.43
2018-12-17T01:35:29.326Z,91.33
2018-12-17T01:35:29.927Z,91.33
2018-12-17T01:35:30.522Z,91.71
2018-12-17T01:35:31.122Z,91.52
2018-12-17T01:36:25.632Z,91.71
2018-12-17T01:36:26.199Z,92.04
2018-12-17T01:36:26.799Z,92.00
2018-12-17T01:36:27.399Z,91.66
2018-12-17T01:36:27.997Z,91.90
2018-12-17T01:36:28.598Z,91.81
2018-12-17T01:36:29.198Z,92.00
2018-12-17T01:36:29.796Z,92.04
2018-12-17T01:37:23.253Z,91.85
2018-12-17T01:37:23.852Z,91.95
2018-12-17T01:37:24.452Z,92.00
2018-12-17T01:37:25.052Z,91.90
2018-12-17T01:37:25.651Z,91.90
2018-12-17T01:37:26.252Z,91.90
2018-12-17T01:37:26.850Z,92.09
2018-12-17T01:37:27.450Z,91.90
2018-12-17T01:38:20.907Z,92.23
2018-12-17T01:38:21.504Z,92.28
2018-12-17T01:38:22.103Z,92.61
2018-12-17T01:38:22.708Z,92.28
2018-12-17T01:38:23.303Z,92.14
2018-12-17T01:38:23.903Z,92.19
2018-12-17T01:38:24.502Z,92.57
2018-12-17T01:38:25.103Z,92.23
2018-12-17T01:39:19.580Z,92.66
2018-12-17T01:39:20.178Z,92.85
2018-12-17T01:39:20.780Z,92.85
2018-12-17T01:39:21.377Z,92.90
2018-12-17T01:39:21.976Z,93.04
2018-12-17T01:39:22.578Z,92.94
2018-12-17T01:39:23.258Z,92.85
2018-12-17T01:39:23.776Z,92.99
2018-12-17T01:40:17.240Z,93.65
2018-12-17T01:40:17.832Z,93.23
2018-12-17T01:40:18.431Z,93.51
2018-12-17T01:40:19.031Z,93.37
2018-12-17T01:40:19.630Z,93.27
2018-12-17T01:40:20.230Z,92.85
2018-12-17T01:40:20.830Z,93.32
2018-12-17T01:40:21.429Z,92.85
2018-12-17T01:41:15.910Z,93.18
2018-12-17T01:41:16.507Z,93.23
2018-12-17T01:41:17.105Z,93.32
2018-12-17T01:41:17.704Z,93.23
2018-12-17T01:41:18.304Z,93.23
2018-12-17T01:41:18.904Z,93.23
2018-12-17T01:41:19.503Z,93.23
2018-12-17T01:41:20.104Z,93.08
2018-12-17T01:42:14.617Z,93.42
2018-12-17T01:42:15.183Z,93.46
2018-12-17T01:42:15.781Z,93.65
2018-12-17T01:42:16.381Z,93.61
2018-12-17T01:42:16.980Z,93.61
2018-12-17T01:42:17.581Z,93.51
2018-12-17T01:42:18.179Z,93.65
2018-12-17T01:42:18.781Z,93.80
2018-12-17T01:43:13.260Z,93.80
2018-12-17T01:43:13.857Z,93.75
2018-12-17T01:43:14.455Z,93.61
2018-12-17T01:43:15.057Z,93.61
2018-12-17T01:43:15.657Z,93.65
2018-12-17T01:43:16.340Z,93.75
2018-12-17T01:43:16.856Z,93.61
2018-12-17T01:43:17.456Z,93.70
2018-12-17T01:44:10.913Z,93.84
2018-12-17T01:44:11.510Z,93.80
2018-12-17T01:44:12.109Z,93.89
2018-12-17T01:44:12.711Z,93.70
2018-12-17T01:44:13.308Z,93.80
2018-12-17T01:44:13.908Z,93.80
2018-12-17T01:44:14.509Z,93.80
2018-12-17T01:44:15.108Z,93.89
2018-12-17T01:45:09.590Z,93.61
2018-12-17T01:45:10.185Z,93.61
2018-12-17T01:45:10.785Z,93.51
2018-12-17T01:45:11.384Z,93.61
2018-12-17T01:45:11.985Z,93.61
2018-12-17T01:45:12.584Z,93.99
2018-12-17T01:45:13.183Z,93.80
2018-12-17T01:45:13.783Z,93.51
2018-12-17T01:46:07.239Z,94.04
2018-12-17T01:46:07.837Z,93.99
2018-12-17T01:46:08.436Z,94.13
2018-12-17T01:46:09.039Z,93.99
2018-12-17T01:46:09.637Z,93.84
2018-12-17T01:46:10.235Z,93.61
2018-12-17T01:46:10.836Z,93.84
2018-12-17T01:46:11.438Z,93.75
2018-12-17T01:47:04.915Z,93.99
2018-12-17T01:47:05.489Z,93.89
2018-12-17T01:47:06.089Z,94.04
2018-12-17T01:47:06.690Z,93.80
2018-12-17T01:47:07.289Z,93.89
2018-12-17T01:47:07.887Z,93.99
2018-12-17T01:47:08.488Z,93.89
2018-12-17T01:47:09.087Z,93.89
2018-12-17T01:48:03.570Z,93.61
2018-12-17T01:48:04.164Z,94.08
2018-12-17T01:48:04.765Z,93.61
2018-12-17T01:48:05.361Z,93.70
2018-12-17T01:48:05.963Z,93.51
2018-12-17T01:48:06.562Z,93.65
2018-12-17T01:48:07.161Z,93.80
2018-12-17T01:48:07.760Z,93.61
2018-12-17T01:49:01.218Z,93.61
2018-12-17T01:49:01.816Z,93.32
2018-12-17T01:49:02.416Z,93.18
2018-12-17T01:49:03.017Z,93.04
2018-12-17T01:49:03.615Z,93.37
2018-12-17T01:49:04.215Z,93.37
2018-12-17T01:49:04.815Z,93.23
2018-12-17T01:49:05.415Z,93.23
2018-12-17T01:49:59.892Z,93.32
2018-12-17T01:50:00.490Z,93.65
2018-12-17T01:50:01.092Z,93.32
2018-12-17T01:50:01.689Z,93.89
2018-12-17T01:50:02.289Z,93.80
2018-12-17T01:50:02.890Z,93.65
2018-12-17T01:50:03.489Z,93.84
2018-12-17T01:50:04.089Z,93.61
2018-12-17T01:50:57.546Z,93.61
2018-12-17T01:50:58.144Z,93.70
2018-12-17T01:50:58.742Z,93.99
2018-12-17T01:50:59.343Z,93.75
2018-12-17T01:50:59.941Z,93.70
2018-12-17T01:51:00.544Z,93.80
2018-12-17T01:51:01.143Z,93.75
2018-12-17T01:51:01.742Z,93.70
2018-12-17T01:51:55.198Z,92.94
2018-12-17T01:51:55.794Z,93.04
2018-12-17T01:51:56.396Z,93.08
2018-12-17T01:51:56.995Z,93.04
2018-12-17T01:51:57.595Z,93.08
2018-12-17T01:51:58.195Z,93.04
2018-12-17T01:51:58.794Z,93.04
2018-12-17T01:51:59.394Z,93.13
2018-12-17T01:52:53.896Z,92.90
2018-12-17T01:52:54.469Z,92.76
2018-12-17T01:52:55.069Z,92.76
2018-12-17T01:52:55.670Z,92.76
2018-12-17T01:52:56.269Z,92.76
2018-12-17T01:52:56.870Z,92.94
2018-12-17T01:52:57.468Z,92.94
2018-12-17T01:52:58.068Z,92.61
2018-12-17T01:53:51.525Z,92.47
2018-12-17T01:53:52.123Z,92.47
2018-12-17T01:53:52.721Z,92.28
2018-12-17T01:53:53.320Z,92.52
2018-12-17T01:53:53.921Z,92.33
2018-12-17T01:53:54.520Z,92.57
2018-12-17T01:53:55.124Z,92.47
2018-12-17T01:53:55.719Z,92.38
2018-12-17T01:54:50.201Z,92.28
2018-12-17T01:54:50.796Z,92.52
2018-12-17T01:54:51.396Z,92.47
2018-12-17T01:54:51.997Z,92.33
2018-12-17T01:54:52.595Z,92.76
2018-12-17T01:54:53.196Z,92.47
2018-12-17T01:54:53.797Z,92.14
2018-12-17T01:54:54.396Z,92.28
2018-12-17T01:55:48.874Z,92.85
2018-12-17T01:55:49.474Z,92.85
2018-12-17T01:55:50.074Z,92.94
2018-12-17T01:55:50.672Z,92.66
2018-12-17T01:55:51.272Z,92.57
2018-12-17T01:55:51.872Z,92.57
2018-12-17T01:55:52.471Z,92.94
2018-12-17T01:55:53.071Z,93.04
2018-12-17T01:56:47.550Z,93.08
2018-12-17T01:56:48.149Z,93.04
2018-12-17T01:56:48.746Z,92.85
2018-12-17T01:56:49.349Z,92.94
2018-12-17T01:56:49.951Z,92.90
2018-12-17T01:56:50.547Z,92.94
2018-12-17T01:56:51.148Z,92.94
2018-12-17T01:56:51.747Z,92.66
2018-12-17T01:57:45.235Z,92.94
2018-12-17T01:57:45.803Z,92.94
2018-12-17T01:57:46.401Z,92.71
2018-12-17T01:57:47.000Z,92.85
2018-12-17T01:57:47.599Z,92.94
2018-12-17T01:57:48.201Z,92.66
2018-12-17T01:57:48.800Z,92.99
2018-12-17T01:57:49.399Z,92.71
2018-12-17T01:58:43.877Z,93.08
2018-12-17T01:58:44.479Z,92.85
2018-12-17T01:58:45.074Z,92.66
2018-12-17T01:58:45.676Z,93.04
2018-12-17T01:58:46.275Z,92.85
2018-12-17T01:58:46.874Z,92.52
2018-12-17T01:58:47.474Z,92.66
2018-12-17T01:58:48.075Z,92.57
2018-12-17T01:59:41.532Z,92.42
2018-12-17T01:59:42.132Z,92.42
2018-12-17T01:59:42.728Z,92.38
2018-12-17T01:59:43.329Z,92.28
2018-12-17T01:59:43.928Z,92.42
2018-12-17T01:59:44.527Z,92.42
2018-12-17T01:59:45.127Z,92.38
2018-12-17T01:59:45.729Z,92.38
2018-12-17T02:00:39.184Z,92.47
2018-12-17T02:00:39.781Z,92.52
2018-12-17T02:00:40.380Z,92.52
2018-12-17T02:00:40.979Z,92.52
2018-12-17T02:00:41.579Z,92.47
2018-12-17T02:00:42.181Z,92.71
2018-12-17T02:00:42.779Z,92.52
2018-12-17T02:00:43.380Z,92.28
2018-12-17T02:01:36.835Z,92.57
2018-12-17T02:01:37.431Z,92.61
2018-12-17T02:01:38.030Z,92.85
2018-12-17T02:01:38.707Z,92.66
2018-12-17T02:01:39.231Z,92.90
2018-12-17T02:01:39.830Z,92.85
2018-12-17T02:01:40.430Z,92.99
2018-12-17T02:01:41.030Z,92.90
2018-12-17T02:02:34.487Z,92.90
2018-12-17T02:02:35.084Z,92.80
2018-12-17T02:02:35.688Z,92.99
2018-12-17T02:02:36.282Z,92.71
2018-12-17T02:02:36.882Z,92.71
2018-12-17T02:02:37.481Z,92.80
2018-12-17T02:02:38.082Z,92.85
2018-12-17T02:02:38.683Z,92.66
2018-12-17T02:03:33.185Z,93.27
2018-12-17T02:03:33.757Z,93.27
2018-12-17T02:03:34.358Z,93.27
2018-12-17T02:03:34.957Z,93.27
2018-12-17T02:03:35.556Z,93.08
2018-12-17T02:03:36.159Z,93.04
2018-12-17T02:03:36.759Z,93.04
2018-12-17T02:03:37.356Z,93.23
2018-12-17T02:04:30.812Z,93.13
2018-12-17T02:04:31.410Z,93.27
2018-12-17T02:04:32.010Z,93.08
2018-12-17T02:04:32.609Z,93.27
2018-12-17T02:04:33.211Z,93.23
2018-12-17T02:04:33.809Z,93.27
2018-12-17T02:04:34.408Z,93.13
2018-12-17T02:04:35.009Z,93.27